sensor_id;sensor_type;location;lat;lon;timestamp;temperature;humidity
33093;DHT22;19456;46.104;12.908;2023-03-23T00:01:48;11.30;99.90
33093;DHT22;19456;46.104;12.908;2023-03-23T00:04:17;11.40;99.90
33093;DHT22;19456;46.104;12.908;2023-03-23T00:06:43;11.40;99.90
33093;DHT22;19456;46.104;12.908;2023-03-23T00:09:11;11.40;99.90
33093;DHT22;19456;46.104;12.908;2023-03-23T00:11:37;11.50;99.90
33093;DHT22;19456;46.104;12.908;2023-03-23T00:14:04;11.40;99.90
33093;DHT22;19456;46.104;12.908;2023-03-23T00:16:31;11.40;99.90
33093;DHT22;19456;46.104;12.908;2023-03-23T00:19:02;11.60;99.90
33093;DHT22;19456;46.104;12.908;2023-03-23T00:21:29;11.60;99.90
33093;DHT22;19456;46.104;12.908;2023-03-23T00:24:05;11.60;99.90
33093;DHT22;19456;46.104;12.908;2023-03-23T00:26:32;11.60;99.90
33093;DHT22;19456;46.104;12.908;2023-03-23T00:28:59;11.50;99.90
33093;DHT22;19456;46.104;12.908;2023-03-23T00:31:25;11.10;99.90
33093;DHT22;19456;46.104;12.908;2023-03-23T00:33:57;10.80;99.90
33093;DHT22;19456;46.104;12.908;2023-03-23T00:36:23;10.60;99.90
33093;DHT22;19456;46.104;12.908;2023-03-23T00:38:49;10.70;99.90
33093;DHT22;19456;46.104;12.908;2023-03-23T00:41:15;10.70;99.90
33093;DHT22;19456;46.104;12.908;2023-03-23T00:43:40;10.90;99.90
33093;DHT22;19456;46.104;12.908;2023-03-23T00:46:06;11.00;99.90
33093;DHT22;19456;46.104;12.908;2023-03-23T00:48:37;11.10;99.90
33093;DHT22;19456;46.104;12.908;2023-03-23T00:51:10;10.90;99.90
33093;DHT22;19456;46.104;12.908;2023-03-23T00:53:36;10.70;99.90
33093;DHT22;19456;46.104;12.908;2023-03-23T00:56:02;10.40;99.90
33093;DHT22;19456;46.104;12.908;2023-03-23T00:58:27;10.50;99.90
33093;DHT22;19456;46.104;12.908;2023-03-23T01:00:53;10.60;99.90
33093;DHT22;19456;46.104;12.908;2023-03-23T01:03:19;10.60;99.90
33093;DHT22;19456;46.104;12.908;2023-03-23T01:05:44;10.60;99.90
33093;DHT22;19456;46.104;12.908;2023-03-23T01:08:12;10.60;99.90
33093;DHT22;19456;46.104;12.908;2023-03-23T01:10:38;10.50;99.90
33093;DHT22;19456;46.104;12.908;2023-03-23T01:13:05;10.40;99.90
33093;DHT22;19456;46.104;12.908;2023-03-23T01:15:31;10.40;99.90
33093;DHT22;19456;46.104;12.908;2023-03-23T01:17:56;10.30;99.90
33093;DHT22;19456;46.104;12.908;2023-03-23T01:20:23;10.30;99.90
33093;DHT22;19456;46.104;12.908;2023-03-23T01:22:48;10.20;99.90
33093;DHT22;19456;46.104;12.908;2023-03-23T01:25:14;10.30;99.90
33093;DHT22;19456;46.104;12.908;2023-03-23T01:27:40;10.40;99.90
33093;DHT22;19456;46.104;12.908;2023-03-23T01:30:06;10.40;99.90
33093;DHT22;19456;46.104;12.908;2023-03-23T01:32:33;10.40;99.90
33093;DHT22;19456;46.104;12.908;2023-03-23T01:34:58;10.40;99.90
33093;DHT22;19456;46.104;12.908;2023-03-23T01:37:24;10.40;99.90
33093;DHT22;19456;46.104;12.908;2023-03-23T01:39:57;10.30;99.90
33093;DHT22;19456;46.104;12.908;2023-03-23T01:42:23;10.10;99.90
33093;DHT22;19456;46.104;12.908;2023-03-23T01:47:15;10.00;99.90
33093;DHT22;19456;46.104;12.908;2023-03-23T01:49:42;9.80;99.90
33093;DHT22;19456;46.104;12.908;2023-03-23T01:52:14;9.70;99.90
33093;DHT22;19456;46.104;12.908;2023-03-23T01:54:42;9.60;99.90
33093;DHT22;19456;46.104;12.908;2023-03-23T01:57:14;9.60;99.90
33093;DHT22;19456;46.104;12.908;2023-03-23T01:59:41;9.60;99.90
33093;DHT22;19456;46.104;12.908;2023-03-23T02:02:07;9.60;99.90
33093;DHT22;19456;46.104;12.908;2023-03-23T02:04:36;9.70;99.90
33093;DHT22;19456;46.104;12.908;2023-03-23T02:07:02;9.80;99.90
33093;DHT22;19456;46.104;12.908;2023-03-23T02:09:28;9.90;99.90
33093;DHT22;19456;46.104;12.908;2023-03-23T02:11:54;9.90;99.90
33093;DHT22;19456;46.104;12.908;2023-03-23T02:14:20;9.80;99.90
33093;DHT22;19456;46.104;12.908;2023-03-23T02:16:57;9.80;99.90
33093;DHT22;19456;46.104;12.908;2023-03-23T02:22:00;10.00;99.90
33093;DHT22;19456;46.104;12.908;2023-03-23T02:34:53;10.10;99.90
33093;DHT22;19456;46.104;12.908;2023-03-23T02:37:36;9.90;99.90
33093;DHT22;19456;46.104;12.908;2023-03-23T02:40:04;9.70;99.90
33093;DHT22;19456;46.104;12.908;2023-03-23T02:42:41;9.50;99.90
33093;DHT22;19456;46.104;12.908;2023-03-23T02:45:08;9.30;99.90
33093;DHT22;19456;46.104;12.908;2023-03-23T02:47:35;9.20;99.90
33093;DHT22;19456;46.104;12.908;2023-03-23T02:50:02;8.90;99.90
33093;DHT22;19456;46.104;12.908;2023-03-23T02:52:29;8.80;99.90
33093;DHT22;19456;46.104;12.908;2023-03-23T02:54:55;8.60;99.90
33093;DHT22;19456;46.104;12.908;2023-03-23T02:57:22;8.70;99.90
33093;DHT22;19456;46.104;12.908;2023-03-23T02:59:48;8.90;99.90
33093;DHT22;19456;46.104;12.908;2023-03-23T03:02:18;9.00;99.90
33093;DHT22;19456;46.104;12.908;2023-03-23T03:04:48;9.20;99.90
33093;DHT22;19456;46.104;12.908;2023-03-23T03:10:05;9.00;99.90
33093;DHT22;19456;46.104;12.908;2023-03-23T03:12:37;8.90;99.90
33093;DHT22;19456;46.104;12.908;2023-03-23T03:17:32;8.80;99.90
33093;DHT22;19456;46.104;12.908;2023-03-23T03:20:02;9.00;99.90
33093;DHT22;19456;46.104;12.908;2023-03-23T03:22:35;9.10;99.90
33093;DHT22;19456;46.104;12.908;2023-03-23T03:25:02;9.10;99.90
33093;DHT22;19456;46.104;12.908;2023-03-23T03:27:28;9.10;99.90
33093;DHT22;19456;46.104;12.908;2023-03-23T03:29:55;9.10;99.90
33093;DHT22;19456;46.104;12.908;2023-03-23T03:32:22;9.10;99.90
33093;DHT22;19456;46.104;12.908;2023-03-23T03:34:49;9.20;99.90
33093;DHT22;19456;46.104;12.908;2023-03-23T03:37:16;9.20;99.90
33093;DHT22;19456;46.104;12.908;2023-03-23T03:39:42;9.30;99.90
33093;DHT22;19456;46.104;12.908;2023-03-23T03:42:07;9.30;99.90
33093;DHT22;19456;46.104;12.908;2023-03-23T03:44:33;9.40;99.90
33093;DHT22;19456;46.104;12.908;2023-03-23T03:46:59;9.20;99.90
33093;DHT22;19456;46.104;12.908;2023-03-23T03:49:25;9.00;99.90
33093;DHT22;19456;46.104;12.908;2023-03-23T03:51:51;8.80;99.90
33093;DHT22;19456;46.104;12.908;2023-03-23T03:54:16;8.70;99.90
33093;DHT22;19456;46.104;12.908;2023-03-23T03:56:42;8.50;99.90
33093;DHT22;19456;46.104;12.908;2023-03-23T03:59:08;8.40;99.90
33093;DHT22;19456;46.104;12.908;2023-03-23T04:01:35;8.50;99.90
33093;DHT22;19456;46.104;12.908;2023-03-23T04:04:00;8.60;99.90
33093;DHT22;19456;46.104;12.908;2023-03-23T04:06:26;8.70;99.90
33093;DHT22;19456;46.104;12.908;2023-03-23T04:08:57;8.90;99.90
33093;DHT22;19456;46.104;12.908;2023-03-23T04:11:24;9.20;99.90
33093;DHT22;19456;46.104;12.908;2023-03-23T04:13:50;9.30;99.90
33093;DHT22;19456;46.104;12.908;2023-03-23T04:16:16;9.30;99.90
33093;DHT22;19456;46.104;12.908;2023-03-23T04:18:42;9.20;99.90
33093;DHT22;19456;46.104;12.908;2023-03-23T04:21:10;9.20;99.90
33093;DHT22;19456;46.104;12.908;2023-03-23T04:23:35;9.10;99.90
33093;DHT22;19456;46.104;12.908;2023-03-23T04:26:02;9.10;99.90
33093;DHT22;19456;46.104;12.908;2023-03-23T04:28:28;9.10;99.90
33093;DHT22;19456;46.104;12.908;2023-03-23T04:30:55;9.10;99.90
33093;DHT22;19456;46.104;12.908;2023-03-23T04:33:24;9.10;99.90
33093;DHT22;19456;46.104;12.908;2023-03-23T04:35:52;9.10;99.90
33093;DHT22;19456;46.104;12.908;2023-03-23T04:38:18;9.00;99.90
33093;DHT22;19456;46.104;12.908;2023-03-23T04:40:49;8.80;99.90
33093;DHT22;19456;46.104;12.908;2023-03-23T04:43:18;8.80;99.90
33093;DHT22;19456;46.104;12.908;2023-03-23T04:45:46;8.90;99.90
33093;DHT22;19456;46.104;12.908;2023-03-23T04:48:12;8.90;99.90
33093;DHT22;19456;46.104;12.908;2023-03-23T04:50:39;8.80;99.90
33093;DHT22;19456;46.104;12.908;2023-03-23T04:53:04;8.90;99.90
33093;DHT22;19456;46.104;12.908;2023-03-23T04:55:31;9.00;99.90
33093;DHT22;19456;46.104;12.908;2023-03-23T04:57:57;9.10;99.90
33093;DHT22;19456;46.104;12.908;2023-03-23T05:00:25;9.00;99.90
33093;DHT22;19456;46.104;12.908;2023-03-23T05:02:51;9.10;99.90
33093;DHT22;19456;46.104;12.908;2023-03-23T05:05:17;9.10;99.90
33093;DHT22;19456;46.104;12.908;2023-03-23T05:07:43;9.10;99.90
33093;DHT22;19456;46.104;12.908;2023-03-23T05:10:09;9.10;99.90
33093;DHT22;19456;46.104;12.908;2023-03-23T05:12:35;9.00;99.90
33093;DHT22;19456;46.104;12.908;2023-03-23T05:15:01;9.00;99.90
33093;DHT22;19456;46.104;12.908;2023-03-23T05:17:27;9.00;99.90
33093;DHT22;19456;46.104;12.908;2023-03-23T05:19:55;8.90;99.90
33093;DHT22;19456;46.104;12.908;2023-03-23T05:22:22;8.90;99.90
33093;DHT22;19456;46.104;12.908;2023-03-23T05:24:47;8.90;99.90
33093;DHT22;19456;46.104;12.908;2023-03-23T05:27:13;8.80;99.90
33093;DHT22;19456;46.104;12.908;2023-03-23T05:29:40;8.80;99.90
33093;DHT22;19456;46.104;12.908;2023-03-23T05:32:06;8.60;99.90
33093;DHT22;19456;46.104;12.908;2023-03-23T05:34:33;8.80;99.90
33093;DHT22;19456;46.104;12.908;2023-03-23T05:36:59;9.00;99.90
33093;DHT22;19456;46.104;12.908;2023-03-23T05:39:26;9.10;99.90
33093;DHT22;19456;46.104;12.908;2023-03-23T05:41:51;9.20;99.90
33093;DHT22;19456;46.104;12.908;2023-03-23T05:44:18;9.20;99.90
33093;DHT22;19456;46.104;12.908;2023-03-23T05:46:43;9.10;99.90
33093;DHT22;19456;46.104;12.908;2023-03-23T05:49:09;9.30;99.90
33093;DHT22;19456;46.104;12.908;2023-03-23T05:51:34;9.30;99.90
33093;DHT22;19456;46.104;12.908;2023-03-23T05:54:00;9.30;99.90
33093;DHT22;19456;46.104;12.908;2023-03-23T05:56:27;9.30;99.90
33093;DHT22;19456;46.104;12.908;2023-03-23T05:58:54;9.40;99.90
33093;DHT22;19456;46.104;12.908;2023-03-23T06:01:19;9.50;99.90
33093;DHT22;19456;46.104;12.908;2023-03-23T06:03:45;9.40;99.90
33093;DHT22;19456;46.104;12.908;2023-03-23T06:06:11;9.30;99.90
33093;DHT22;19456;46.104;12.908;2023-03-23T06:08:36;9.20;99.90
33093;DHT22;19456;46.104;12.908;2023-03-23T06:11:03;9.20;99.90
33093;DHT22;19456;46.104;12.908;2023-03-23T06:13:28;9.20;99.90
33093;DHT22;19456;46.104;12.908;2023-03-23T06:15:57;9.40;99.90
33093;DHT22;19456;46.104;12.908;2023-03-23T06:18:25;9.40;99.90
33093;DHT22;19456;46.104;12.908;2023-03-23T06:20:51;9.60;99.90
33093;DHT22;19456;46.104;12.908;2023-03-23T06:23:18;9.80;99.90
33093;DHT22;19456;46.104;12.908;2023-03-23T06:25:43;10.00;99.90
33093;DHT22;19456;46.104;12.908;2023-03-23T06:28:10;10.20;99.90
33093;DHT22;19456;46.104;12.908;2023-03-23T06:30:36;10.30;99.90
33093;DHT22;19456;46.104;12.908;2023-03-23T06:33:02;10.50;99.90
33093;DHT22;19456;46.104;12.908;2023-03-23T06:35:31;10.60;99.90
33093;DHT22;19456;46.104;12.908;2023-03-23T06:37:59;10.80;99.90
33093;DHT22;19456;46.104;12.908;2023-03-23T06:40:28;10.80;99.90
33093;DHT22;19456;46.104;12.908;2023-03-23T06:42:56;10.80;99.90
33093;DHT22;19456;46.104;12.908;2023-03-23T06:45:22;10.90;99.90
33093;DHT22;19456;46.104;12.908;2023-03-23T06:47:48;10.90;99.90
33093;DHT22;19456;46.104;12.908;2023-03-23T06:50:14;11.00;99.90
33093;DHT22;19456;46.104;12.908;2023-03-23T06:52:40;11.10;99.90
33093;DHT22;19456;46.104;12.908;2023-03-23T06:55:06;11.30;99.90
33093;DHT22;19456;46.104;12.908;2023-03-23T06:57:32;11.40;99.90
33093;DHT22;19456;46.104;12.908;2023-03-23T06:59:58;11.60;99.90
33093;DHT22;19456;46.104;12.908;2023-03-23T07:02:23;11.70;99.90
33093;DHT22;19456;46.104;12.908;2023-03-23T07:04:49;11.90;99.90
33093;DHT22;19456;46.104;12.908;2023-03-23T07:07:14;12.10;99.90
33093;DHT22;19456;46.104;12.908;2023-03-23T07:09:44;12.40;99.90
33093;DHT22;19456;46.104;12.908;2023-03-23T07:12:09;12.50;99.90
33093;DHT22;19456;46.104;12.908;2023-03-23T07:14:35;12.60;99.90
33093;DHT22;19456;46.104;12.908;2023-03-23T07:17:01;12.70;99.90
33093;DHT22;19456;46.104;12.908;2023-03-23T07:19:27;12.80;99.90
33093;DHT22;19456;46.104;12.908;2023-03-23T07:21:53;12.90;99.90
33093;DHT22;19456;46.104;12.908;2023-03-23T07:24:18;13.10;99.90
33093;DHT22;19456;46.104;12.908;2023-03-23T07:26:44;13.20;99.90
33093;DHT22;19456;46.104;12.908;2023-03-23T07:29:10;13.30;99.90
33093;DHT22;19456;46.104;12.908;2023-03-23T07:31:36;13.30;99.90
33093;DHT22;19456;46.104;12.908;2023-03-23T07:34:02;13.20;99.90
33093;DHT22;19456;46.104;12.908;2023-03-23T07:36:28;13.30;99.90
33093;DHT22;19456;46.104;12.908;2023-03-23T07:38:53;13.30;99.90
33093;DHT22;19456;46.104;12.908;2023-03-23T07:41:20;13.30;99.90
33093;DHT22;19456;46.104;12.908;2023-03-23T07:43:46;13.40;99.90
33093;DHT22;19456;46.104;12.908;2023-03-23T07:46:12;13.40;99.90
33093;DHT22;19456;46.104;12.908;2023-03-23T07:48:38;13.50;99.90
33093;DHT22;19456;46.104;12.908;2023-03-23T07:51:04;13.60;99.90
33093;DHT22;19456;46.104;12.908;2023-03-23T07:53:30;13.70;99.90
33093;DHT22;19456;46.104;12.908;2023-03-23T07:55:55;13.80;99.90
33093;DHT22;19456;46.104;12.908;2023-03-23T07:58:21;13.90;99.90
33093;DHT22;19456;46.104;12.908;2023-03-23T08:00:46;13.80;99.90
33093;DHT22;19456;46.104;12.908;2023-03-23T08:09:26;13.80;99.90
33093;DHT22;19456;46.104;12.908;2023-03-23T08:11:52;14.00;99.90
33093;DHT22;19456;46.104;12.908;2023-03-23T08:14:18;14.10;99.90
33093;DHT22;19456;46.104;12.908;2023-03-23T08:16:43;14.10;99.90
33093;DHT22;19456;46.104;12.908;2023-03-23T08:19:09;14.20;99.90
33093;DHT22;19456;46.104;12.908;2023-03-23T08:21:34;14.20;99.90
33093;DHT22;19456;46.104;12.908;2023-03-23T08:24:00;14.30;99.90
33093;DHT22;19456;46.104;12.908;2023-03-23T08:26:26;14.40;99.90
33093;DHT22;19456;46.104;12.908;2023-03-23T08:28:52;14.40;99.90
33093;DHT22;19456;46.104;12.908;2023-03-23T08:31:18;14.50;99.90
33093;DHT22;19456;46.104;12.908;2023-03-23T08:33:44;14.60;99.90
33093;DHT22;19456;46.104;12.908;2023-03-23T08:36:09;14.80;99.90
33093;DHT22;19456;46.104;12.908;2023-03-23T08:38:35;14.90;99.90
33093;DHT22;19456;46.104;12.908;2023-03-23T08:41:02;15.10;99.90
33093;DHT22;19456;46.104;12.908;2023-03-23T08:43:30;15.30;99.90
33093;DHT22;19456;46.104;12.908;2023-03-23T08:45:55;15.40;99.90
33093;DHT22;19456;46.104;12.908;2023-03-23T08:48:21;15.60;99.90
33093;DHT22;19456;46.104;12.908;2023-03-23T08:50:48;15.40;99.90
33093;DHT22;19456;46.104;12.908;2023-03-23T08:53:15;15.50;99.90
33093;DHT22;19456;46.104;12.908;2023-03-23T08:55:40;15.50;99.90
33093;DHT22;19456;46.104;12.908;2023-03-23T08:58:06;15.60;99.90
33093;DHT22;19456;46.104;12.908;2023-03-23T09:00:35;15.80;99.90
33093;DHT22;19456;46.104;12.908;2023-03-23T09:03:00;16.00;99.90
33093;DHT22;19456;46.104;12.908;2023-03-23T09:05:27;16.40;99.90
33093;DHT22;19456;46.104;12.908;2023-03-23T09:07:53;16.70;99.90
33093;DHT22;19456;46.104;12.908;2023-03-23T09:10:20;17.00;99.90
33093;DHT22;19456;46.104;12.908;2023-03-23T09:12:49;17.10;99.90
33093;DHT22;19456;46.104;12.908;2023-03-23T09:15:17;17.20;99.90
33093;DHT22;19456;46.104;12.908;2023-03-23T09:17:46;17.30;99.90
33093;DHT22;19456;46.104;12.908;2023-03-23T09:20:14;17.40;99.90
33093;DHT22;19456;46.104;12.908;2023-03-23T09:22:41;17.40;99.90
33093;DHT22;19456;46.104;12.908;2023-03-23T09:25:10;17.50;99.90
33093;DHT22;19456;46.104;12.908;2023-03-23T09:27:36;17.50;99.90
33093;DHT22;19456;46.104;12.908;2023-03-23T09:30:05;17.60;99.90
33093;DHT22;19456;46.104;12.908;2023-03-23T09:32:32;17.70;99.90
33093;DHT22;19456;46.104;12.908;2023-03-23T09:34:58;17.80;99.90
33093;DHT22;19456;46.104;12.908;2023-03-23T09:37:28;17.70;99.90
33093;DHT22;19456;46.104;12.908;2023-03-23T09:39:54;17.80;99.90
33093;DHT22;19456;46.104;12.908;2023-03-23T09:42:30;17.80;99.90
33093;DHT22;19456;46.104;12.908;2023-03-23T09:53:45;18.10;99.90
33093;DHT22;19456;46.104;12.908;2023-03-23T09:56:18;18.10;99.90
33093;DHT22;19456;46.104;12.908;2023-03-23T10:03:43;18.10;99.90
33093;DHT22;19456;46.104;12.908;2023-03-23T10:06:10;18.10;99.90
33093;DHT22;19456;46.104;12.908;2023-03-23T10:08:43;18.10;99.90
33093;DHT22;19456;46.104;12.908;2023-03-23T10:16:50;18.50;99.90
33093;DHT22;19456;46.104;12.908;2023-03-23T10:25:28;18.90;99.90
33093;DHT22;19456;46.104;12.908;2023-03-23T10:28:21;19.10;99.90
33093;DHT22;19456;46.104;12.908;2023-03-23T10:30:55;19.10;99.90
33093;DHT22;19456;46.104;12.908;2023-03-23T10:33:26;19.20;99.90
33093;DHT22;19456;46.104;12.908;2023-03-23T10:38:26;19.30;99.90
33093;DHT22;19456;46.104;12.908;2023-03-23T10:41:25;19.40;99.90
33093;DHT22;19456;46.104;12.908;2023-03-23T10:43:44;19.60;99.90
33093;DHT22;19456;46.104;12.908;2023-03-23T10:48:54;19.80;99.90
33093;DHT22;19456;46.104;12.908;2023-03-23T10:51:27;19.90;99.90
33093;DHT22;19456;46.104;12.908;2023-03-23T10:53:57;20.00;99.90
33093;DHT22;19456;46.104;12.908;2023-03-23T10:58:52;20.00;99.90
33093;DHT22;19456;46.104;12.908;2023-03-23T11:01:19;20.00;99.90
33093;DHT22;19456;46.104;12.908;2023-03-23T11:03:46;20.30;99.90
33093;DHT22;19456;46.104;12.908;2023-03-23T11:06:20;20.40;99.90
33093;DHT22;19456;46.104;12.908;2023-03-23T11:08:52;20.20;99.90
33093;DHT22;19456;46.104;12.908;2023-03-23T11:11:20;20.20;99.90
33093;DHT22;19456;46.104;12.908;2023-03-23T11:13:49;20.50;99.90
33093;DHT22;19456;46.104;12.908;2023-03-23T11:16:23;20.90;99.90
33093;DHT22;19456;46.104;12.908;2023-03-23T11:18:49;21.10;99.90
33093;DHT22;19456;46.104;12.908;2023-03-23T11:21:14;21.40;99.90
33093;DHT22;19456;46.104;12.908;2023-03-23T11:23:48;21.60;99.90
33093;DHT22;19456;46.104;12.908;2023-03-23T11:26:15;22.00;99.90
33093;DHT22;19456;46.104;12.908;2023-03-23T11:28:51;22.60;99.90
33093;DHT22;19456;46.104;12.908;2023-03-23T11:31:17;22.80;99.90
33093;DHT22;19456;46.104;12.908;2023-03-23T11:33:56;22.50;99.90
33093;DHT22;19456;46.104;12.908;2023-03-23T11:36:30;22.60;99.90
33093;DHT22;19456;46.104;12.908;2023-03-23T11:38:56;23.00;99.90
33093;DHT22;19456;46.104;12.908;2023-03-23T11:41:24;23.20;99.90
33093;DHT22;19456;46.104;12.908;2023-03-23T11:43:55;23.50;99.90
33093;DHT22;19456;46.104;12.908;2023-03-23T11:46:26;23.70;99.10
33093;DHT22;19456;46.104;12.908;2023-03-23T11:48:58;23.50;98.60
33093;DHT22;19456;46.104;12.908;2023-03-23T11:51:39;23.40;98.30
33093;DHT22;19456;46.104;12.908;2023-03-23T11:54:25;23.20;99.30
33093;DHT22;19456;46.104;12.908;2023-03-23T11:56:51;23.20;99.10
33093;DHT22;19456;46.104;12.908;2023-03-23T11:59:31;22.80;98.70
33093;DHT22;19456;46.104;12.908;2023-03-23T12:04:56;22.60;98.60
33093;DHT22;19456;46.104;12.908;2023-03-23T12:12:40;22.20;99.90
33093;DHT22;19456;46.104;12.908;2023-03-23T12:17:58;22.00;99.00
33093;DHT22;19456;46.104;12.908;2023-03-23T12:25:57;23.00;97.40
33093;DHT22;19456;46.104;12.908;2023-03-23T12:31:03;23.40;97.20
33093;DHT22;19456;46.104;12.908;2023-03-23T12:33:39;23.60;96.80
33093;DHT22;19456;46.104;12.908;2023-03-23T12:41:20;24.10;94.70
33093;DHT22;19456;46.104;12.908;2023-03-23T12:43:57;23.90;96.00
33093;DHT22;19456;46.104;12.908;2023-03-23T12:48:57;25.00;94.60
33093;DHT22;19456;46.104;12.908;2023-03-23T12:53:52;25.80;93.30
33093;DHT22;19456;46.104;12.908;2023-03-23T12:56:29;26.10;92.80
33093;DHT22;19456;46.104;12.908;2023-03-23T12:58:59;26.20;91.60
33093;DHT22;19456;46.104;12.908;2023-03-23T13:01:35;26.00;90.00
33093;DHT22;19456;46.104;12.908;2023-03-23T13:09:05;25.00;87.30
33093;DHT22;19456;46.104;12.908;2023-03-23T13:11:36;25.20;88.60
33093;DHT22;19456;46.104;12.908;2023-03-23T13:17:29;26.10;86.40
33093;DHT22;19456;46.104;12.908;2023-03-23T13:22:48;25.30;88.20
33093;DHT22;19456;46.104;12.908;2023-03-23T13:25:19;26.10;85.20
33093;DHT22;19456;46.104;12.908;2023-03-23T13:27:55;26.00;84.40
33093;DHT22;19456;46.104;12.908;2023-03-23T13:30:21;26.00;84.10
33093;DHT22;19456;46.104;12.908;2023-03-23T13:32:50;25.50;83.50
33093;DHT22;19456;46.104;12.908;2023-03-23T13:35:18;25.90;82.40
33093;DHT22;19456;46.104;12.908;2023-03-23T13:37:48;26.20;82.60
33093;DHT22;19456;46.104;12.908;2023-03-23T13:40:35;27.00;82.10
33093;DHT22;19456;46.104;12.908;2023-03-23T13:43:00;26.60;80.30
33093;DHT22;19456;46.104;12.908;2023-03-23T13:50:44;28.20;79.50
33093;DHT22;19456;46.104;12.908;2023-03-23T13:53:13;29.40;76.30
33093;DHT22;19456;46.104;12.908;2023-03-23T13:55:41;29.90;73.10
33093;DHT22;19456;46.104;12.908;2023-03-23T14:00:49;30.00;68.90
33093;DHT22;19456;46.104;12.908;2023-03-23T14:11:01;25.80;74.50
33093;DHT22;19456;46.104;12.908;2023-03-23T14:18:41;24.40;81.40
33093;DHT22;19456;46.104;12.908;2023-03-23T14:21:15;25.30;79.20
33093;DHT22;19456;46.104;12.908;2023-03-23T14:23:41;25.70;78.50
33093;DHT22;19456;46.104;12.908;2023-03-23T14:26:11;26.10;76.30
33093;DHT22;19456;46.104;12.908;2023-03-23T14:28:40;25.80;76.60
33093;DHT22;19456;46.104;12.908;2023-03-23T14:31:14;25.70;76.10
33093;DHT22;19456;46.104;12.908;2023-03-23T14:33:41;25.00;76.30
33093;DHT22;19456;46.104;12.908;2023-03-23T14:36:07;25.00;76.80
33093;DHT22;19456;46.104;12.908;2023-03-23T14:38:33;25.80;77.10
33093;DHT22;19456;46.104;12.908;2023-03-23T14:41:03;27.40;75.40
33093;DHT22;19456;46.104;12.908;2023-03-23T14:43:29;28.90;71.40
33093;DHT22;19456;46.104;12.908;2023-03-23T14:45:56;29.20;70.90
33093;DHT22;19456;46.104;12.908;2023-03-23T14:48:23;29.30;69.30
33093;DHT22;19456;46.104;12.908;2023-03-23T14:50:51;29.00;67.60
33093;DHT22;19456;46.104;12.908;2023-03-23T14:55:50;28.30;67.40
33093;DHT22;19456;46.104;12.908;2023-03-23T14:58:16;28.30;68.70
33093;DHT22;19456;46.104;12.908;2023-03-23T15:00:43;27.90;68.60
33093;DHT22;19456;46.104;12.908;2023-03-23T15:03:12;27.60;68.80
33093;DHT22;19456;46.104;12.908;2023-03-23T15:05:41;27.30;70.00
33093;DHT22;19456;46.104;12.908;2023-03-23T15:08:12;28.00;69.70
33093;DHT22;19456;46.104;12.908;2023-03-23T15:10:38;28.10;69.20
33093;DHT22;19456;46.104;12.908;2023-03-23T15:13:04;27.60;69.60
33093;DHT22;19456;46.104;12.908;2023-03-23T15:15:33;27.50;69.20
33093;DHT22;19456;46.104;12.908;2023-03-23T15:20:53;28.10;70.10
33093;DHT22;19456;46.104;12.908;2023-03-23T15:23:26;28.10;69.80
33093;DHT22;19456;46.104;12.908;2023-03-23T15:25:52;27.80;69.30
33093;DHT22;19456;46.104;12.908;2023-03-23T15:28:19;27.90;70.00
33093;DHT22;19456;46.104;12.908;2023-03-23T15:30:51;27.50;70.70
33093;DHT22;19456;46.104;12.908;2023-03-23T15:33:17;27.90;72.20
33093;DHT22;19456;46.104;12.908;2023-03-23T15:35:45;27.60;72.30
33093;DHT22;19456;46.104;12.908;2023-03-23T15:40:42;27.30;74.20
33093;DHT22;19456;46.104;12.908;2023-03-23T15:43:17;27.00;73.10
33093;DHT22;19456;46.104;12.908;2023-03-23T15:48:18;26.90;72.90
33093;DHT22;19456;46.104;12.908;2023-03-23T15:50:43;26.70;72.20
33093;DHT22;19456;46.104;12.908;2023-03-23T15:55:48;26.10;75.50
33093;DHT22;19456;46.104;12.908;2023-03-23T15:58:13;25.30;75.20
33093;DHT22;19456;46.104;12.908;2023-03-23T16:00:40;24.90;76.30
33093;DHT22;19456;46.104;12.908;2023-03-23T16:03:17;24.60;77.30
33093;DHT22;19456;46.104;12.908;2023-03-23T16:05:43;24.20;79.60
33093;DHT22;19456;46.104;12.908;2023-03-23T16:08:10;23.70;81.50
33093;DHT22;19456;46.104;12.908;2023-03-23T16:10:36;23.10;83.00
33093;DHT22;19456;46.104;12.908;2023-03-23T16:13:01;22.70;83.70
33093;DHT22;19456;46.104;12.908;2023-03-23T16:15:27;22.30;85.00
33093;DHT22;19456;46.104;12.908;2023-03-23T16:17:52;22.00;85.60
33093;DHT22;19456;46.104;12.908;2023-03-23T16:20:19;21.80;86.80
33093;DHT22;19456;46.104;12.908;2023-03-23T16:22:45;21.50;89.40
33093;DHT22;19456;46.104;12.908;2023-03-23T16:25:11;21.30;90.10
33093;DHT22;19456;46.104;12.908;2023-03-23T16:27:37;21.10;90.90
33093;DHT22;19456;46.104;12.908;2023-03-23T16:30:25;20.90;91.70
33093;DHT22;19456;46.104;12.908;2023-03-23T16:32:51;20.70;92.80
33093;DHT22;19456;46.104;12.908;2023-03-23T16:35:17;20.50;93.00
33093;DHT22;19456;46.104;12.908;2023-03-23T16:37:44;20.40;93.30
33093;DHT22;19456;46.104;12.908;2023-03-23T16:40:10;20.20;94.40
33093;DHT22;19456;46.104;12.908;2023-03-23T16:42:36;20.00;95.10
33093;DHT22;19456;46.104;12.908;2023-03-23T16:45:01;19.90;95.70
33093;DHT22;19456;46.104;12.908;2023-03-23T16:47:27;19.70;96.30
33093;DHT22;19456;46.104;12.908;2023-03-23T16:49:52;19.50;97.70
33093;DHT22;19456;46.104;12.908;2023-03-23T16:52:18;19.40;98.50
33093;DHT22;19456;46.104;12.908;2023-03-23T16:54:44;19.20;98.30
33093;DHT22;19456;46.104;12.908;2023-03-23T16:57:10;19.20;99.00
33093;DHT22;19456;46.104;12.908;2023-03-23T16:59:36;19.10;99.80
33093;DHT22;19456;46.104;12.908;2023-03-23T17:02:01;19.10;99.90
33093;DHT22;19456;46.104;12.908;2023-03-23T17:04:28;19.00;99.90
33093;DHT22;19456;46.104;12.908;2023-03-23T17:06:54;18.90;99.90
33093;DHT22;19456;46.104;12.908;2023-03-23T17:09:20;18.80;99.60
33093;DHT22;19456;46.104;12.908;2023-03-23T17:11:45;18.70;99.70
33093;DHT22;19456;46.104;12.908;2023-03-23T17:14:11;18.60;99.80
33093;DHT22;19456;46.104;12.908;2023-03-23T17:16:36;18.50;99.90
33093;DHT22;19456;46.104;12.908;2023-03-23T17:19:02;18.40;99.90
33093;DHT22;19456;46.104;12.908;2023-03-23T17:21:28;18.30;99.90
33093;DHT22;19456;46.104;12.908;2023-03-23T17:23:54;18.20;99.90
33093;DHT22;19456;46.104;12.908;2023-03-23T17:26:19;18.10;99.90
33093;DHT22;19456;46.104;12.908;2023-03-23T17:28:45;18.00;99.90
33093;DHT22;19456;46.104;12.908;2023-03-23T17:31:10;17.80;99.90
33093;DHT22;19456;46.104;12.908;2023-03-23T17:33:36;17.70;99.90
33093;DHT22;19456;46.104;12.908;2023-03-23T17:36:02;17.70;99.90
33093;DHT22;19456;46.104;12.908;2023-03-23T17:38:27;17.60;99.90